Time;durP1;ratioP1;P1;durP2;ratioP2;P2;SDS_P1;SDS_P2;PMS_P1;PMS_P2;Temp;Humidity;BMP_temperature;BMP_pressure;BME280_temperature;BME280_humidity;BME280_pressure;Samples;Min_cycle;Max_cycle;Signal;HPM_P1;HPM_P2
2023/03/19 00:00:18;;;;;;;2.90;2.40;;;10.20;99.90;;;;;;461737;257;27900;-71
2023/03/19 00:02:19;;;;;;;10.50;3.90;;;10.20;99.90;;;;;;461629;257;28203;-72
2023/03/19 00:04:21;;;;;;;9.17;4.10;;;10.20;99.90;;;;;;461745;257;28171;-72
2023/03/19 00:06:21;;;;;;;4.30;3.20;;;10.20;99.90;;;;;;461688;257;28242;-73
2023/03/19 00:08:23;;;;;;;4.60;2.50;;;10.20;99.90;;;;;;461795;257;28184;-73
2023/03/19 00:10:24;;;;;;;5.07;2.57;;;10.00;99.90;;;;;;461791;257;28010;-72
2023/03/19 00:12:25;;;;;;;5.20;2.37;;;9.90;99.90;;;;;;461622;257;28341;-72
2023/03/19 00:14:26;;;;;;;7.27;2.23;;;9.90;99.90;;;;;;461758;257;28573;-74
2023/03/19 00:16:28;;;;;;;2.97;2.20;;;9.90;99.90;;;;;;461758;257;28638;-71
2023/03/19 00:18:29;;;;;;;4.63;2.53;;;9.90;99.90;;;;;;461751;257;28494;-73
2023/03/19 00:20:30;;;;;;;3.60;2.10;;;9.90;99.90;;;;;;461765;257;28527;-72
2023/03/19 00:22:32;;;;;;;4.87;2.30;;;9.90;99.90;;;;;;461742;257;28658;-73
2023/03/19 00:24:33;;;;;;;4.83;2.20;;;9.90;99.90;;;;;;461774;257;28804;-72
2023/03/19 00:26:34;;;;;;;2.67;2.07;;;9.90;99.90;;;;;;461775;257;28057;-72
2023/03/19 00:28:36;;;;;;;4.80;1.90;;;9.90;99.90;;;;;;460860;257;28004;-72
2023/03/19 00:30:36;;;;;;;6.90;2.23;;;9.90;99.90;;;;;;460787;258;27926;-72
2023/03/19 00:32:39;;;;;;;3.97;2.30;;;10.00;99.90;;;;;;460745;258;28059;-72
2023/03/19 00:34:39;;;;;;;2.93;2.30;;;9.90;99.90;;;;;;460748;258;27920;-72
2023/03/19 00:36:41;;;;;;;2.23;2.10;;;9.80;99.90;;;;;;460791;258;28095;-72
2023/03/19 00:38:42;;;;;;;6.03;2.63;;;9.80;99.90;;;;;;460756;258;28044;-74
2023/03/19 00:40:43;;;;;;;3.63;2.33;;;9.70;99.90;;;;;;460793;258;27980;-72
2023/03/19 00:42:44;;;;;;;2.60;1.80;;;9.70;99.90;;;;;;460789;258;28009;-72
2023/03/19 00:44:45;;;;;;;4.63;1.60;;;9.70;99.90;;;;;;460767;258;27957;-72
2023/03/19 00:46:46;;;;;;;2.13;1.97;;;9.80;99.90;;;;;;460800;258;27996;-72
2023/03/19 00:48:48;;;;;;;3.57;1.97;;;9.70;99.90;;;;;;460760;258;27765;-74
2023/03/19 00:50:49;;;;;;;3.90;2.10;;;9.70;99.90;;;;;;460787;258;28063;-72
2023/03/19 00:52:51;;;;;;;1.80;1.70;;;9.80;99.90;;;;;;460777;258;28233;-72
2023/03/19 00:54:51;;;;;;;2.67;2.00;;;9.80;99.90;;;;;;460755;258;28455;-72
2023/03/19 00:56:53;;;;;;;5.43;1.93;;;9.80;99.90;;;;;;460813;258;28450;-72
2023/03/19 00:58:54;;;;;;;3.90;2.07;;;9.70;99.90;;;;;;460802;258;28475;-73
2023/03/19 01:00:55;;;;;;;2.37;2.17;;;9.70;99.90;;;;;;463184;252;28439;-72
2023/03/19 01:02:56;;;;;;;3.33;2.20;;;9.60;99.90;;;;;;472241;250;28258;-72
2023/03/19 01:04:58;;;;;;;3.67;2.30;;;9.70;99.90;;;;;;472232;250;27970;-72
2023/03/19 01:06:59;;;;;;;3.90;2.00;;;9.70;99.90;;;;;;472238;251;27963;-72
2023/03/19 01:09:00;;;;;;;2.60;1.90;;;9.70;99.90;;;;;;472267;250;27792;-73
2023/03/19 01:11:01;;;;;;;1.90;1.70;;;9.80;99.90;;;;;;471941;252;27974;-72
2023/03/19 01:13:03;;;;;;;2.90;1.90;;;9.90;99.90;;;;;;472252;251;27847;-72
2023/03/19 01:15:04;;;;;;;5.00;2.50;;;9.90;99.90;;;;;;472223;250;27997;-72
2023/03/19 01:17:08;;;;;;;4.33;2.47;;;9.90;99.90;;;;;;472226;250;28042;-72
2023/03/19 01:19:11;;;;;;;2.17;1.97;;;10.00;99.90;;;;;;472250;250;27917;-72
2023/03/19 01:21:11;;;;;;;2.50;2.10;;;10.00;99.90;;;;;;472146;252;28545;-72
2023/03/19 01:23:12;;;;;;;2.20;2.00;;;10.10;99.90;;;;;;472172;250;29072;-72
2023/03/19 01:25:14;;;;;;;2.47;1.97;;;10.20;99.90;;;;;;472202;250;28340;-72
2023/03/19 01:27:15;;;;;;;3.90;2.40;;;10.20;99.90;;;;;;472186;250;27939;-74
2023/03/19 01:29:16;;;;;;;2.33;1.80;;;10.30;99.90;;;;;;472228;250;27959;-72
2023/03/19 01:31:17;;;;;;;6.17;2.43;;;10.30;99.90;;;;;;472221;250;27950;-73
2023/03/19 01:33:19;;;;;;;2.10;1.90;;;10.40;99.90;;;;;;472227;251;28056;-72
2023/03/19 01:35:20;;;;;;;2.73;1.90;;;10.40;99.90;;;;;;472253;251;28065;-72
2023/03/19 01:37:21;;;;;;;3.70;2.20;;;10.40;99.90;;;;;;472180;250;27890;-73
2023/03/19 01:39:22;;;;;;;3.20;2.23;;;10.50;99.90;;;;;;472261;250;27895;-72
2023/03/19 01:41:23;;;;;;;2.40;1.83;;;10.50;99.90;;;;;;472249;252;27920;-72
2023/03/19 01:43:25;;;;;;;3.83;2.13;;;10.50;99.90;;;;;;472186;252;28097;-73
2023/03/19 01:45:26;;;;;;;4.07;2.20;;;10.50;99.90;;;;;;472250;250;28611;-72
2023/03/19 01:47:27;;;;;;;2.53;1.90;;;10.50;99.90;;;;;;472212;250;28654;-73
2023/03/19 01:49:28;;;;;;;5.00;2.20;;;10.50;99.90;;;;;;472261;251;28586;-72
2023/03/19 01:51:30;;;;;;;2.20;1.90;;;10.50;99.90;;;;;;472255;252;28624;-72
2023/03/19 01:53:31;;;;;;;2.63;1.90;;;10.60;99.90;;;;;;472245;250;28124;-74
2023/03/19 01:55:32;;;;;;;7.13;2.57;;;10.60;99.90;;;;;;472290;250;28165;-72
2023/03/19 01:57:33;;;;;;;10.90;2.57;;;10.50;99.90;;;;;;472267;250;28270;-72
2023/03/19 01:59:35;;;;;;;2.60;2.10;;;10.50;99.90;;;;;;472237;250;28115;-72
2023/03/19 02:01:36;;;;;;;3.40;2.13;;;10.60;99.90;;;;;;472242;251;27952;-72
2023/03/19 02:03:37;;;;;;;2.27;2.00;;;10.60;99.90;;;;;;472201;250;28335;-74
2023/03/19 02:05:39;;;;;;;3.50;2.00;;;10.60;99.90;;;;;;472244;250;28195;-72
2023/03/19 02:07:40;;;;;;;3.63;2.27;;;10.60;99.90;;;;;;472243;250;28237;-73
2023/03/19 02:09:41;;;;;;;3.60;2.33;;;10.60;99.90;;;;;;472211;250;28517;-71
2023/03/19 02:11:42;;;;;;;3.47;2.17;;;10.50;99.90;;;;;;472226;250;28572;-71
2023/03/19 02:13:43;;;;;;;2.33;2.10;;;10.50;99.90;;;;;;472252;246;28775;-72
2023/03/19 02:15:45;;;;;;;2.53;2.20;;;10.40;99.90;;;;;;472234;250;28707;-72
2023/03/19 02:17:46;;;;;;;3.30;2.30;;;10.40;99.90;;;;;;472238;250;28133;-72
2023/03/19 02:19:47;;;;;;;4.63;2.40;;;10.30;99.90;;;;;;472195;252;28100;-72
2023/03/19 02:21:49;;;;;;;2.80;2.30;;;10.30;99.90;;;;;;472241;250;28117;-73
2023/03/19 02:23:50;;;;;;;3.30;2.30;;;10.20;99.90;;;;;;472223;250;28127;-72
2023/03/19 02:25:51;;;;;;;5.17;2.03;;;10.20;99.90;;;;;;472230;250;27994;-72
2023/03/19 02:27:52;;;;;;;4.07;2.60;;;10.10;99.90;;;;;;472249;250;27945;-73
2023/03/19 02:29:54;;;;;;;5.83;2.40;;;10.10;99.90;;;;;;472238;247;28046;-72
2023/03/19 02:31:55;;;;;;;3.63;2.10;;;10.10;99.90;;;;;;472218;250;27937;-72
2023/03/19 02:33:56;;;;;;;4.10;2.37;;;10.00;99.90;;;;;;472236;247;28057;-74
2023/03/19 02:35:57;;;;;;;3.20;2.50;;;10.10;99.90;;;;;;472225;250;28674;-72
2023/03/19 02:37:59;;;;;;;2.77;2.10;;;10.10;99.90;;;;;;472255;250;28515;-72
2023/03/19 02:40:00;;;;;;;3.37;2.20;;;10.10;99.90;;;;;;472263;250;28502;-72
2023/03/19 02:42:01;;;;;;;5.00;2.77;;;10.10;99.90;;;;;;472241;250;28040;-72
2023/03/19 02:44:03;;;;;;;3.47;2.60;;;10.10;99.90;;;;;;472248;250;28100;-72
2023/03/19 02:46:04;;;;;;;2.40;2.20;;;10.00;99.90;;;;;;472254;250;27958;-72
2023/03/19 02:48:05;;;;;;;2.53;2.33;;;10.00;99.90;;;;;;472251;250;27831;-73
2023/03/19 02:50:06;;;;;;;2.40;2.20;;;10.00;99.90;;;;;;472254;250;27920;-73
2023/03/19 02:52:07;;;;;;;2.83;2.27;;;9.90;99.90;;;;;;472217;250;27940;-73
2023/03/19 02:54:09;;;;;;;5.77;2.50;;;9.90;99.90;;;;;;472229;250;28021;-73
2023/03/19 02:56:10;;;;;;;2.60;2.30;;;9.90;99.90;;;;;;472250;250;27994;-72
2023/03/19 02:58:11;;;;;;;9.70;2.87;;;9.80;99.90;;;;;;472225;250;28071;-72
2023/03/19 03:00:12;;;;;;;3.47;2.27;;;9.80;99.90;;;;;;472242;251;28022;-73
2023/03/19 03:02:14;;;;;;;5.83;3.00;;;9.70;99.90;;;;;;472227;250;28019;-73
2023/03/19 03:04:15;;;;;;;3.47;2.47;;;9.70;99.90;;;;;;472208;250;28495;-73
2023/03/19 03:06:16;;;;;;;3.07;2.77;;;9.70;99.90;;;;;;472250;250;28496;-72
2023/03/19 03:08:17;;;;;;;2.50;2.30;;;9.70;99.90;;;;;;472070;252;28332;-72
2023/03/19 03:10:19;;;;;;;3.30;2.57;;;9.60;99.90;;;;;;472275;250;28377;-72
2023/03/19 03:12:20;;;;;;;3.73;2.67;;;9.70;99.90;;;;;;472271;250;28431;-72
2023/03/19 03:14:21;;;;;;;4.40;2.30;;;9.60;99.90;;;;;;472220;247;27705;-72
2023/03/19 03:16:23;;;;;;;4.23;2.40;;;9.60;99.90;;;;;;472263;250;27939;-73
2023/03/19 03:18:23;;;;;;;3.80;2.33;;;9.60;99.90;;;;;;472257;250;27937;-72
2023/03/19 03:20:25;;;;;;;2.90;2.23;;;9.50;99.90;;;;;;472215;250;27760;-71
2023/03/19 03:22:26;;;;;;;4.60;3.10;;;9.50;99.90;;;;;;472237;251;27784;-72
2023/03/19 03:24:27;;;;;;;4.60;2.83;;;9.50;99.90;;;;;;472217;250;27968;-72
2023/03/19 03:26:28;;;;;;;6.27;2.80;;;9.40;99.90;;;;;;472237;251;27941;-72
2023/03/19 03:28:30;;;;;;;2.50;2.20;;;9.40;99.90;;;;;;472235;252;27670;-72
2023/03/19 03:30:31;;;;;;;4.10;2.13;;;9.40;99.90;;;;;;472214;250;27990;-72
2023/03/19 03:32:32;;;;;;;6.47;3.00;;;9.40;99.90;;;;;;472225;251;28032;-72
2023/03/19 03:34:34;;;;;;;3.53;2.63;;;9.30;99.90;;;;;;472230;250;27944;-72
2023/03/19 03:36:35;;;;;;;5.00;3.10;;;9.30;99.90;;;;;;472247;250;28147;-73
2023/03/19 03:38:36;;;;;;;2.60;2.40;;;9.30;99.90;;;;;;472258;251;27704;-73
2023/03/19 03:40:37;;;;;;;4.67;2.40;;;9.30;99.90;;;;;;472235;250;27909;-72
2023/03/19 03:42:38;;;;;;;3.13;2.50;;;9.30;99.90;;;;;;472224;250;27953;-72
2023/03/19 03:44:40;;;;;;;2.80;2.57;;;9.20;99.90;;;;;;472227;250;28038;-72
2023/03/19 03:46:42;;;;;;;5.47;2.83;;;9.20;99.90;;;;;;472197;250;28232;-72
2023/03/19 03:48:42;;;;;;;4.83;2.87;;;9.20;99.90;;;;;;472218;250;28551;-73
2023/03/19 03:50:44;;;;;;;3.70;2.60;;;9.10;99.90;;;;;;472200;250;28983;-72
2023/03/19 03:52:45;;;;;;;4.40;3.40;;;9.10;99.90;;;;;;472212;251;28476;-72
2023/03/19 03:54:46;;;;;;;5.20;2.40;;;9.10;99.90;;;;;;472215;250;27902;-72
2023/03/19 03:56:49;;;;;;;6.57;2.90;;;9.10;99.90;;;;;;472203;250;27952;-72
2023/03/19 03:58:49;;;;;;;4.80;2.70;;;9.10;99.90;;;;;;472130;252;27466;-74
2023/03/19 04:00:50;;;;;;;5.63;3.47;;;9.10;99.90;;;;;;472204;251;28033;-72
2023/03/19 04:02:51;;;;;;;3.60;2.70;;;9.00;99.90;;;;;;472207;250;27946;-73
2023/03/19 04:04:52;;;;;;;3.83;3.07;;;9.00;99.90;;;;;;472234;250;27626;-72
2023/03/19 04:06:53;;;;;;;4.53;3.17;;;9.10;99.90;;;;;;472204;250;27986;-73
2023/03/19 04:08:55;;;;;;;3.93;3.03;;;9.00;99.90;;;;;;472242;250;27720;-73
2023/03/19 04:10:57;;;;;;;3.57;2.37;;;9.00;99.90;;;;;;472248;250;27927;-72
2023/03/19 04:12:58;;;;;;;6.40;2.60;;;9.10;99.90;;;;;;472181;250;27884;-72
2023/03/19 04:14:58;;;;;;;4.00;2.73;;;9.00;99.90;;;;;;472226;250;27923;-73
2023/03/19 04:17:00;;;;;;;3.50;3.10;;;9.10;99.90;;;;;;472240;246;27866;-73
2023/03/19 04:19:01;;;;;;;3.20;2.60;;;9.00;99.90;;;;;;472207;250;27670;-73
2023/03/19 04:21:02;;;;;;;3.10;2.70;;;9.00;99.90;;;;;;472260;250;27990;-72
2023/03/19 04:23:03;;;;;;;4.97;2.70;;;9.00;99.90;;;;;;472118;250;28413;-72
2023/03/19 04:25:07;;;;;;;4.90;2.30;;;9.00;99.90;;;;;;472210;250;28583;-74
2023/03/19 04:27:06;;;;;;;5.23;3.37;;;9.00;99.90;;;;;;472122;250;28364;-72
2023/03/19 04:29:07;;;;;;;4.60;3.07;;;9.00;99.90;;;;;;472203;250;28444;-73
2023/03/19 04:31:09;;;;;;;2.80;2.60;;;8.90;99.90;;;;;;472234;250;28491;-73
2023/03/19 04:33:10;;;;;;;6.90;3.43;;;8.90;99.90;;;;;;472218;251;27948;-72
2023/03/19 04:35:11;;;;;;;4.90;3.00;;;8.90;99.90;;;;;;472181;251;28049;-74
2023/03/19 04:37:12;;;;;;;3.43;2.57;;;8.90;99.90;;;;;;472242;250;27912;-72
2023/03/19 04:39:13;;;;;;;7.37;3.00;;;8.90;99.90;;;;;;472218;252;28412;-73
2023/03/19 04:41:18;;;;;;;3.03;2.73;;;8.80;99.90;;;;;;472227;250;27882;-72
2023/03/19 04:43:19;;;;;;;7.10;2.70;;;8.90;99.90;;;;;;472231;250;27515;-72
2023/03/19 04:45:20;;;;;;;5.50;2.90;;;8.80;99.90;;;;;;472187;251;27908;-72
2023/03/19 04:47:22;;;;;;;4.90;3.20;;;8.80;99.90;;;;;;472242;250;27942;-74
2023/03/19 04:49:26;;;;;;;3.80;2.73;;;8.80;99.90;;;;;;472235;250;27893;-74
2023/03/19 04:51:24;;;;;;;5.93;2.90;;;8.90;99.90;;;;;;471929;252;27961;-73
2023/03/19 04:53:25;;;;;;;4.97;2.83;;;8.90;99.90;;;;;;472223;250;28014;-72
2023/03/19 04:55:26;;;;;;;3.77;3.40;;;8.90;99.90;;;;;;472180;250;27856;-73
2023/03/19 04:57:28;;;;;;;4.00;2.70;;;8.90;99.90;;;;;;472228;250;27940;-73
2023/03/19 04:59:29;;;;;;;4.27;2.80;;;8.80;99.90;;;;;;476187;249;27587;-72
2023/03/19 05:01:30;;;;;;;4.00;2.50;;;8.80;99.90;;;;;;476766;249;28046;-72
2023/03/19 05:03:31;;;;;;;3.27;2.97;;;8.80;99.90;;;;;;476788;249;28120;-72
2023/03/19 05:05:33;;;;;;;3.93;2.97;;;8.80;99.90;;;;;;476746;249;27953;-72
2023/03/19 05:07:35;;;;;;;3.80;2.83;;;8.80;99.90;;;;;;476119;249;27937;-73
2023/03/19 05:09:35;;;;;;;3.20;2.57;;;8.80;99.90;;;;;;475973;250;28125;-72
2023/03/19 05:11:36;;;;;;;3.37;3.00;;;8.80;99.90;;;;;;475990;250;28517;-73
2023/03/19 05:13:38;;;;;;;6.60;3.57;;;8.80;99.90;;;;;;475972;250;28563;-72
2023/03/19 05:15:40;;;;;;;3.27;2.97;;;8.90;99.90;;;;;;475973;250;29368;-73
2023/03/19 05:17:41;;;;;;;5.20;2.90;;;8.90;99.90;;;;;;475926;250;28524;-73
2023/03/19 05:19:42;;;;;;;5.73;3.77;;;9.00;99.90;;;;;;475949;250;28498;-72
2023/03/19 05:21:43;;;;;;;3.20;2.80;;;9.00;99.90;;;;;;475966;250;27780;-73
2023/03/19 05:23:44;;;;;;;3.80;3.37;;;9.10;99.90;;;;;;475985;250;28011;-72
2023/03/19 05:25:46;;;;;;;5.20;3.40;;;9.10;99.90;;;;;;475956;250;28055;-71
2023/03/19 05:27:46;;;;;;;4.03;3.27;;;9.10;99.90;;;;;;475888;250;27990;-74
2023/03/19 05:29:48;;;;;;;3.63;3.27;;;9.10;99.90;;;;;;475988;246;28092;-72
2023/03/19 05:31:50;;;;;;;3.27;2.70;;;9.10;99.90;;;;;;473805;250;27964;-72
2023/03/19 05:33:50;;;;;;;5.87;3.20;;;9.00;99.90;;;;;;474496;250;28005;-72
2023/03/19 05:35:52;;;;;;;3.80;2.77;;;9.00;99.90;;;;;;474539;250;28103;-72
2023/03/19 05:37:53;;;;;;;3.67;2.87;;;8.90;99.90;;;;;;474538;250;28087;-73
2023/03/19 05:39:54;;;;;;;4.63;2.87;;;8.90;99.90;;;;;;474553;250;27895;-72
2023/03/19 05:41:55;;;;;;;7.00;2.87;;;8.80;99.90;;;;;;474585;250;27918;-72
2023/03/19 05:43:56;;;;;;;4.00;2.73;;;8.80;99.90;;;;;;474520;250;27985;-72
2023/03/19 05:45:58;;;;;;;4.27;2.90;;;8.80;99.90;;;;;;474549;250;28025;-71
2023/03/19 05:47:59;;;;;;;4.60;2.87;;;8.80;99.90;;;;;;474581;250;28018;-74
2023/03/19 05:50:00;;;;;;;4.00;2.97;;;8.80;99.90;;;;;;474516;250;28479;-72
2023/03/19 05:52:01;;;;;;;5.30;3.20;;;8.90;99.90;;;;;;474525;250;28607;-72
2023/03/19 05:54:03;;;;;;;2.90;2.60;;;8.90;99.90;;;;;;474552;250;28429;-72
2023/03/19 05:56:04;;;;;;;4.70;3.20;;;9.00;99.90;;;;;;474557;250;28798;-72
2023/03/19 05:58:06;;;;;;;3.60;3.27;;;9.00;99.90;;;;;;474588;250;28249;-73
2023/03/19 06:00:06;;;;;;;4.03;2.67;;;9.10;99.90;;;;;;474512;250;27872;-71
2023/03/19 06:02:08;;;;;;;5.67;3.50;;;9.10;99.90;;;;;;474588;250;28059;-72
2023/03/19 06:04:09;;;;;;;4.80;3.40;;;9.10;99.90;;;;;;474566;250;28088;-72
2023/03/19 06:06:11;;;;;;;9.07;3.37;;;9.10;99.90;;;;;;474545;250;28080;-72
2023/03/19 06:08:11;;;;;;;3.57;3.00;;;9.00;99.90;;;;;;474595;250;28019;-72
2023/03/19 06:10:13;;;;;;;3.53;3.03;;;9.00;99.90;;;;;;474555;250;27894;-72
2023/03/19 06:12:15;;;;;;;6.50;3.10;;;9.10;99.90;;;;;;474538;250;27950;-72
2023/03/19 06:14:15;;;;;;;6.40;3.37;;;9.10;99.90;;;;;;474525;250;28050;-72
2023/03/19 06:16:16;;;;;;;3.63;3.07;;;9.20;99.90;;;;;;474519;250;27743;-72
2023/03/19 06:18:18;;;;;;;4.17;3.43;;;9.10;99.90;;;;;;474580;250;27591;-73
2023/03/19 06:20:19;;;;;;;5.60;2.97;;;9.10;99.90;;;;;;474556;250;27882;-72
2023/03/19 06:22:20;;;;;;;3.50;2.90;;;9.10;99.90;;;;;;474510;250;28045;-72
2023/03/19 06:24:21;;;;;;;3.73;3.03;;;9.20;99.90;;;;;;474537;250;28204;-72
2023/03/19 06:26:23;;;;;;;5.33;2.67;;;9.20;99.90;;;;;;474507;250;28047;-72
2023/03/19 06:28:24;;;;;;;6.80;2.77;;;9.20;99.90;;;;;;474567;250;28508;-74
2023/03/19 06:30:25;;;;;;;5.10;2.43;;;9.20;99.90;;;;;;474591;250;28292;-72
2023/03/19 06:32:26;;;;;;;6.27;3.03;;;9.30;99.90;;;;;;474509;250;28511;-72
2023/03/19 06:34:28;;;;;;;3.07;2.77;;;9.30;99.90;;;;;;474587;250;28542;-72
2023/03/19 06:36:29;;;;;;;3.67;2.60;;;9.40;99.90;;;;;;474586;250;28141;-73
2023/03/19 06:38:30;;;;;;;3.63;2.83;;;9.40;99.90;;;;;;474565;250;28587;-72
2023/03/19 06:40:31;;;;;;;4.00;3.10;;;9.40;99.90;;;;;;474583;250;28071;-72
2023/03/19 06:42:33;;;;;;;4.03;3.30;;;9.40;99.90;;;;;;474555;250;27823;-72
2023/03/19 06:44:34;;;;;;;2.77;2.47;;;9.50;99.90;;;;;;474555;250;27961;-72
2023/03/19 06:46:36;;;;;;;4.20;3.27;;;9.50;99.90;;;;;;474563;250;27980;-72
2023/03/19 06:48:36;;;;;;;4.13;2.70;;;9.60;99.90;;;;;;474546;250;27840;-72
2023/03/19 06:50:38;;;;;;;4.30;2.90;;;9.60;99.90;;;;;;474569;250;27866;-72
2023/03/19 06:52:39;;;;;;;4.43;2.90;;;9.70;99.90;;;;;;474552;250;27968;-73
2023/03/19 06:54:40;;;;;;;3.03;2.73;;;9.70;99.90;;;;;;474003;250;28074;-72
2023/03/19 06:56:41;;;;;;;4.10;2.53;;;9.80;99.90;;;;;;472548;250;28065;-73
2023/03/19 06:58:43;;;;;;;3.17;2.50;;;9.80;99.90;;;;;;472914;250;28050;-72
2023/03/19 07:00:44;;;;;;;4.10;2.67;;;9.90;99.90;;;;;;470897;249;27858;-72
2023/03/19 07:02:45;;;;;;;6.50;3.20;;;9.90;99.90;;;;;;472743;250;28003;-73
2023/03/19 07:04:47;;;;;;;3.10;2.37;;;10.00;99.90;;;;;;473861;250;28063;-72
2023/03/19 07:06:48;;;;;;;5.53;3.20;;;9.90;99.90;;;;;;474562;250;28151;-73
2023/03/19 07:08:49;;;;;;;5.00;2.53;;;10.00;99.90;;;;;;474521;250;27992;-72
2023/03/19 07:10:50;;;;;;;3.90;3.00;;;10.00;99.90;;;;;;474527;250;28009;-72
2023/03/19 07:12:52;;;;;;;7.07;2.90;;;10.10;99.90;;;;;;474562;250;27845;-73
2023/03/19 07:14:54;;;;;;;2.73;2.50;;;10.10;99.90;;;;;;474474;250;28004;-72
2023/03/19 07:16:54;;;;;;;4.37;2.67;;;10.20;99.90;;;;;;474442;250;28236;-72
2023/03/19 07:18:55;;;;;;;4.80;3.00;;;10.30;99.90;;;;;;474543;250;28163;-72
2023/03/19 07:20:57;;;;;;;7.70;5.80;;;10.40;99.90;;;;;;474521;250;28824;-71
2023/03/19 07:22:58;;;;;;;5.90;5.30;;;10.50;99.90;;;;;;474565;250;28642;-74
2023/03/19 07:24:59;;;;;;;6.97;4.80;;;10.50;99.90;;;;;;474515;250;28741;-72
2023/03/19 07:27:01;;;;;;;6.80;4.03;;;10.60;99.90;;;;;;474554;250;28640;-74
2023/03/19 07:29:02;;;;;;;5.00;3.33;;;10.60;99.90;;;;;;474468;250;28087;-73
2023/03/19 07:31:03;;;;;;;5.77;4.80;;;10.60;99.90;;;;;;474530;250;28228;-73
2023/03/19 07:33:05;;;;;;;5.53;5.03;;;10.70;99.90;;;;;;474539;250;28359;-75
2023/03/19 07:35:06;;;;;;;4.83;4.43;;;10.70;99.90;;;;;;474430;250;28153;-73
2023/03/19 07:37:07;;;;;;;4.60;3.77;;;10.80;99.90;;;;;;474415;250;28505;-73
2023/03/19 07:39:08;;;;;;;3.20;2.80;;;10.90;99.90;;;;;;474538;250;28172;-73
2023/03/19 07:41:09;;;;;;;4.63;3.23;;;10.90;99.90;;;;;;474529;250;28277;-73
2023/03/19 07:43:10;;;;;;;4.10;2.90;;;11.00;99.90;;;;;;470999;246;28416;-75
2023/03/19 07:45:12;;;;;;;6.10;2.90;;;11.10;99.90;;;;;;467648;254;28762;-73
2023/03/19 07:47:13;;;;;;;6.47;3.70;;;11.20;99.90;;;;;;464436;254;29010;-74
2023/03/19 07:49:14;;;;;;;4.43;2.90;;;11.30;99.90;;;;;;468272;254;28520;-73
2023/03/19 07:51:15;;;;;;;3.67;3.10;;;11.40;99.90;;;;;;469107;250;28528;-73
2023/03/19 07:53:17;;;;;;;6.30;2.93;;;11.50;99.90;;;;;;470753;252;28249;-76
2023/03/19 07:55:18;;;;;;;3.00;2.70;;;11.60;99.90;;;;;;470804;252;28102;-73
2023/03/19 07:57:19;;;;;;;3.30;2.60;;;11.80;99.90;;;;;;470857;252;29006;-74
2023/03/19 07:59:20;;;;;;;3.93;2.93;;;11.90;99.90;;;;;;470800;252;28380;-72
2023/03/19 08:01:22;;;;;;;6.10;4.10;;;12.00;99.90;;;;;;470853;252;29011;-73
2023/03/19 08:03:23;;;;;;;4.43;2.80;;;12.10;99.90;;;;;;470823;252;28290;-74
2023/03/19 08:05:24;;;;;;;4.97;3.33;;;12.20;99.90;;;;;;470836;252;29344;-72
2023/03/19 08:07:26;;;;;;;5.07;3.40;;;12.10;99.90;;;;;;470858;252;28908;-73
2023/03/19 08:09:27;;;;;;;4.87;3.10;;;12.00;99.90;;;;;;470845;252;28787;-73
2023/03/19 08:11:28;;;;;;;4.77;3.30;;;11.90;99.90;;;;;;470762;250;28393;-72
2023/03/19 08:13:30;;;;;;;4.87;3.20;;;11.80;99.90;;;;;;466224;254;28223;-72
2023/03/19 08:15:31;;;;;;;6.10;3.80;;;11.70;99.90;;;;;;464213;254;28254;-73
2023/03/19 08:17:36;;;;;;;9.10;5.80;;;11.80;99.90;;;;;;475866;250;28041;-73
2023/03/19 08:19:33;;;;;;;6.80;3.37;;;11.80;99.90;;;;;;481402;247;28245;-73
2023/03/19 08:21:34;;;;;;;4.20;3.20;;;11.90;99.90;;;;;;480589;246;28801;-73
2023/03/19 08:23:36;;;;;;;11.43;9.40;;;12.00;99.90;;;;;;471319;252;28464;-74
2023/03/19 08:25:37;;;;;;;4.30;3.83;;;12.00;99.90;;;;;;471332;252;28332;-74
2023/03/19 08:27:38;;;;;;;3.87;2.83;;;12.20;99.90;;;;;;471344;252;28757;-74
2023/03/19 08:29:39;;;;;;;7.30;2.90;;;12.30;99.90;;;;;;471022;250;29764;-73
2023/03/19 08:31:41;;;;;;;5.10;2.90;;;12.30;99.90;;;;;;472327;250;28724;-75
2023/03/19 08:33:42;;;;;;;4.80;3.70;;;12.40;99.90;;;;;;469221;250;28936;-75
2023/03/19 08:35:43;;;;;;;5.57;4.07;;;12.50;99.90;;;;;;469297;250;28109;-73
2023/03/19 08:37:45;;;;;;;7.67;3.20;;;12.60;99.90;;;;;;470361;250;28369;-72
2023/03/19 08:39:46;;;;;;;6.20;3.30;;;12.60;99.90;;;;;;469035;250;28845;-73
2023/03/19 08:41:47;;;;;;;6.60;2.87;;;12.50;99.90;;;;;;468837;253;29061;-73
2023/03/19 08:43:48;;;;;;;4.33;2.93;;;12.50;99.90;;;;;;470734;252;28965;-75
2023/03/19 08:45:49;;;;;;;3.93;3.07;;;12.50;99.90;;;;;;470731;250;28646;-72
2023/03/19 08:47:51;;;;;;;3.70;2.90;;;12.60;99.90;;;;;;471769;250;28337;-73
2023/03/19 08:49:52;;;;;;;4.40;2.87;;;12.60;99.90;;;;;;470840;252;28709;-72
2023/03/19 08:51:53;;;;;;;3.07;2.70;;;12.60;99.80;;;;;;470843;252;28882;-73
2023/03/19 08:53:55;;;;;;;4.33;3.30;;;12.50;99.30;;;;;;470849;252;29002;-75
2023/03/19 08:55:56;;;;;;;6.07;2.80;;;12.60;99.90;;;;;;470854;252;28369;-72
2023/03/19 08:57:57;;;;;;;4.80;2.93;;;12.70;99.80;;;;;;470884;252;28403;-73
2023/03/19 08:59:58;;;;;;;5.33;3.10;;;12.80;99.00;;;;;;470804;252;28208;-72
2023/03/19 09:01:59;;;;;;;6.80;3.00;;;12.80;99.60;;;;;;470852;252;28539;-72
2023/03/19 09:04:01;;;;;;;7.60;3.93;;;12.90;99.20;;;;;;468537;249;28446;-76
2023/03/19 09:06:02;;;;;;;6.30;3.30;;;13.00;98.50;;;;;;466534;254;28273;-72
2023/03/19 09:08:03;;;;;;;3.13;2.63;;;13.00;98.70;;;;;;466528;254;28491;-73
2023/03/19 09:10:04;;;;;;;4.30;3.57;;;13.20;99.60;;;;;;463836;250;28340;-72
2023/03/19 09:12:06;;;;;;;5.77;2.83;;;13.40;99.10;;;;;;467274;254;28495;-72
2023/03/19 09:14:07;;;;;;;4.80;2.97;;;13.40;98.60;;;;;;468645;234;29102;-76
2023/03/19 09:16:08;;;;;;;5.83;3.40;;;13.30;98.80;;;;;;476945;246;29437;-73
2023/03/19 09:18:10;;;;;;;4.13;2.83;;;13.20;99.10;;;;;;484219;245;28698;-73
2023/03/19 09:20:11;;;;;;;5.97;3.40;;;13.10;98.60;;;;;;484542;245;28796;-73
2023/03/19 09:22:12;;;;;;;4.40;3.20;;;13.00;98.80;;;;;;484689;245;28332;-72
2023/03/19 09:24:13;;;;;;;4.10;3.03;;;12.90;98.60;;;;;;484687;245;28503;-73
2023/03/19 09:26:15;;;;;;;3.27;2.97;;;12.90;99.60;;;;;;484707;245;28426;-71
2023/03/19 09:28:16;;;;;;;4.57;2.80;;;12.90;98.90;;;;;;482672;245;36005;-72
2023/03/19 09:30:17;;;;;;;4.03;2.97;;;12.90;99.20;;;;;;484686;245;27417;-72
2023/03/19 09:32:18;;;;;;;3.63;3.10;;;12.90;98.00;;;;;;484673;245;28472;-72
2023/03/19 09:34:20;;;;;;;7.20;3.20;;;12.90;99.10;;;;;;484682;245;28494;-73
2023/03/19 09:36:21;;;;;;;3.17;2.50;;;13.00;99.00;;;;;;484668;245;28367;-72
2023/03/19 09:38:22;;;;;;;3.40;3.10;;;13.10;99.20;;;;;;484673;245;29024;-72
2023/03/19 09:40:23;;;;;;;6.50;2.90;;;13.20;98.20;;;;;;484697;245;30047;-75
2023/03/19 09:42:25;;;;;;;5.23;3.03;;;13.30;99.50;;;;;;484697;245;29272;-72
2023/03/19 09:44:26;;;;;;;4.20;3.40;;;13.40;98.20;;;;;;484682;245;28448;-73
2023/03/19 09:46:27;;;;;;;4.50;2.93;;;13.40;97.20;;;;;;484695;245;28439;-72
2023/03/19 09:48:30;;;;;;;6.23;3.27;;;13.40;97.30;;;;;;484713;245;28471;-73
2023/03/19 09:50:33;;;;;;;5.70;3.40;;;13.50;98.70;;;;;;484656;245;28941;-74
2023/03/19 09:52:31;;;;;;;3.10;2.70;;;13.50;97.50;;;;;;484442;245;28940;-72
2023/03/19 09:54:32;;;;;;;3.43;3.10;;;13.50;97.30;;;;;;484693;245;28363;-74
2023/03/19 09:56:33;;;;;;;4.23;3.30;;;13.70;98.10;;;;;;484738;245;28367;-72
2023/03/19 09:58:35;;;;;;;6.80;3.00;;;13.80;97.30;;;;;;484718;245;28413;-74
2023/03/19 10:00:36;;;;;;;4.60;2.73;;;13.90;97.60;;;;;;484727;245;28782;-73
2023/03/19 10:02:37;;;;;;;4.53;3.10;;;14.10;97.20;;;;;;484689;245;28749;-73
2023/03/19 10:04:38;;;;;;;5.70;3.73;;;14.10;96.90;;;;;;484726;245;28290;-72
2023/03/19 10:06:40;;;;;;;5.00;2.87;;;14.30;96.80;;;;;;484711;245;28864;-75
2023/03/19 10:08:41;;;;;;;4.90;3.30;;;14.40;97.30;;;;;;484695;245;28789;-72
2023/03/19 10:10:42;;;;;;;4.13;3.10;;;14.40;97.20;;;;;;484716;245;28900;-73
2023/03/19 10:12:43;;;;;;;4.40;3.13;;;14.50;96.50;;;;;;484736;245;29331;-72
2023/03/19 10:14:45;;;;;;;4.13;2.70;;;14.40;96.70;;;;;;484686;245;29277;-72
2023/03/19 10:16:46;;;;;;;5.40;2.80;;;14.40;96.60;;;;;;484726;245;29330;-71
2023/03/19 10:18:47;;;;;;;4.13;3.60;;;14.40;96.90;;;;;;484715;245;28737;-73
2023/03/19 10:20:48;;;;;;;5.23;2.97;;;14.40;97.30;;;;;;484723;245;28843;-73
2023/03/19 10:22:50;;;;;;;4.40;3.00;;;14.30;97.20;;;;;;484750;245;28734;-73
2023/03/19 10:24:51;;;;;;;8.97;3.10;;;14.20;97.40;;;;;;484727;245;28849;-72
2023/03/19 10:26:52;;;;;;;9.23;3.07;;;14.00;97.50;;;;;;484730;245;29142;-75
2023/03/19 10:28:53;;;;;;;3.23;2.93;;;13.80;97.70;;;;;;484744;245;28735;-72
2023/03/19 10:30:55;;;;;;;4.17;3.10;;;13.70;98.00;;;;;;484724;245;28880;-74
2023/03/19 10:32:56;;;;;;;5.87;3.63;;;13.60;99.00;;;;;;484748;245;28429;-72
2023/03/19 10:34:58;;;;;;;4.23;2.70;;;13.60;99.70;;;;;;484691;245;28854;-73